sensor_id;sensor_type;location;lat;lon;timestamp;pressure;altitude;pressure_sealevel;temperature;humidity
35151;BME280;55720;51.972;4.624;2023-04-09T00:01:06;103201.66;;;5.82;100.00
35151;BME280;55720;51.972;4.624;2023-04-09T00:03:33;103221.09;;;5.85;100.00
35151;BME280;55720;51.972;4.624;2023-04-09T00:05:58;103243.84;;;5.91;100.00
35151;BME280;55720;51.972;4.624;2023-04-09T00:08:24;103255.84;;;5.78;100.00
35151;BME280;55720;51.972;4.624;2023-04-09T00:10:53;103250.03;;;5.75;100.00
35151;BME280;55720;51.972;4.624;2023-04-09T00:13:19;103256.56;;;5.74;100.00
35151;BME280;55720;51.972;4.624;2023-04-09T00:15:45;103262.00;;;5.74;100.00
35151;BME280;55720;51.972;4.624;2023-04-09T00:18:11;103264.97;;;5.61;100.00
35151;BME280;55720;51.972;4.624;2023-04-09T00:20:36;103270.34;;;5.56;100.00
35151;BME280;55720;51.972;4.624;2023-04-09T00:23:02;103256.53;;;5.85;100.00
35151;BME280;55720;51.972;4.624;2023-04-09T00:25:27;103257.53;;;5.68;100.00
35151;BME280;55720;51.972;4.624;2023-04-09T00:27:56;103248.38;;;5.74;100.00
35151;BME280;55720;51.972;4.624;2023-04-09T00:30:21;103206.03;;;5.83;100.00
35151;BME280;55720;51.972;4.624;2023-04-09T00:32:47;103231.31;;;5.78;100.00
35151;BME280;55720;51.972;4.624;2023-04-09T00:35:13;103226.59;;;5.62;100.00
35151;BME280;55720;51.972;4.624;2023-04-09T00:37:38;103225.06;;;5.55;100.00
35151;BME280;55720;51.972;4.624;2023-04-09T00:40:04;103225.00;;;5.50;100.00
35151;BME280;55720;51.972;4.624;2023-04-09T00:42:31;103213.13;;;5.56;100.00
35151;BME280;55720;51.972;4.624;2023-04-09T00:44:57;103213.84;;;5.51;100.00
35151;BME280;55720;51.972;4.624;2023-04-09T00:47:22;103195.13;;;5.43;100.00
35151;BME280;55720;51.972;4.624;2023-04-09T00:49:47;103192.81;;;5.35;100.00
35151;BME280;55720;51.972;4.624;2023-04-09T00:52:13;103208.66;;;5.26;100.00
35151;BME280;55720;51.972;4.624;2023-04-09T00:54:38;103210.47;;;5.21;100.00
35151;BME280;55720;51.972;4.624;2023-04-09T00:57:04;103212.84;;;5.17;100.00
35151;BME280;55720;51.972;4.624;2023-04-09T00:59:30;103202.31;;;5.21;100.00
35151;BME280;55720;51.972;4.624;2023-04-09T01:01:55;103187.59;;;5.22;100.00
35151;BME280;55720;51.972;4.624;2023-04-09T01:04:21;103186.31;;;5.24;100.00
35151;BME280;55720;51.972;4.624;2023-04-09T01:06:50;103167.25;;;5.24;100.00
35151;BME280;55720;51.972;4.624;2023-04-09T01:09:32;103173.28;;;5.15;100.00
35151;BME280;55720;51.972;4.624;2023-04-09T01:12:13;103156.94;;;5.03;100.00
35151;BME280;55720;51.972;4.624;2023-04-09T01:15:06;103149.38;;;5.05;100.00
35151;BME280;55720;51.972;4.624;2023-04-09T01:17:37;103154.34;;;5.08;100.00
35151;BME280;55720;51.972;4.624;2023-04-09T01:20:11;103152.31;;;5.15;100.00
35151;BME280;55720;51.972;4.624;2023-04-09T01:28:15;103138.03;;;4.96;100.00
35151;BME280;55720;51.972;4.624;2023-04-09T01:30:44;103137.44;;;4.94;100.00
35151;BME280;55720;51.972;4.624;2023-04-09T01:33:13;103104.09;;;4.87;100.00
35151;BME280;55720;51.972;4.624;2023-04-09T01:35:42;103128.81;;;4.86;100.00
35151;BME280;55720;51.972;4.624;2023-04-09T01:38:08;103093.38;;;5.09;100.00
35151;BME280;55720;51.972;4.624;2023-04-09T01:40:35;103114.00;;;5.05;100.00
35151;BME280;55720;51.972;4.624;2023-04-09T01:43:01;103109.59;;;5.04;100.00
35151;BME280;55720;51.972;4.624;2023-04-09T01:45:27;103106.75;;;5.11;100.00
35151;BME280;55720;51.972;4.624;2023-04-09T01:47:53;103092.53;;;5.20;100.00
35151;BME280;55720;51.972;4.624;2023-04-09T01:50:19;103073.97;;;5.90;100.00
35151;BME280;55720;51.972;4.624;2023-04-09T01:52:45;103072.34;;;5.89;100.00
35151;BME280;55720;51.972;4.624;2023-04-09T01:55:11;103068.03;;;6.10;100.00
35151;BME280;55720;51.972;4.624;2023-04-09T01:57:37;103057.84;;;6.39;100.00
35151;BME280;55720;51.972;4.624;2023-04-09T02:00:03;103048.22;;;6.53;100.00
35151;BME280;55720;51.972;4.624;2023-04-09T02:02:41;103048.31;;;6.80;100.00
35151;BME280;55720;51.972;4.624;2023-04-09T02:05:11;103048.19;;;6.91;100.00
35151;BME280;55720;51.972;4.624;2023-04-09T02:07:43;103041.00;;;7.07;100.00
35151;BME280;55720;51.972;4.624;2023-04-09T02:10:12;103033.22;;;7.21;100.00
35151;BME280;55720;51.972;4.624;2023-04-09T02:12:39;103039.63;;;7.31;100.00
35151;BME280;55720;51.972;4.624;2023-04-09T02:15:07;103033.66;;;7.34;100.00
35151;BME280;55720;51.972;4.624;2023-04-09T02:17:33;103081.84;;;7.40;100.00
35151;BME280;55720;51.972;4.624;2023-04-09T02:19:59;103126.44;;;7.46;100.00
35151;BME280;55720;51.972;4.624;2023-04-09T02:22:24;103154.91;;;7.50;100.00
35151;BME280;55720;51.972;4.624;2023-04-09T02:24:49;103190.53;;;7.55;100.00
35151;BME280;55720;51.972;4.624;2023-04-09T02:27:15;103212.06;;;7.52;100.00
35151;BME280;55720;51.972;4.624;2023-04-09T02:29:40;103226.91;;;7.56;100.00
35151;BME280;55720;51.972;4.624;2023-04-09T02:32:06;103237.03;;;7.60;100.00
35151;BME280;55720;51.972;4.624;2023-04-09T02:34:32;103251.19;;;7.74;100.00
35151;BME280;55720;51.972;4.624;2023-04-09T02:36:57;103258.25;;;7.70;100.00
35151;BME280;55720;51.972;4.624;2023-04-09T02:39:23;103271.63;;;7.71;100.00
35151;BME280;55720;51.972;4.624;2023-04-09T02:41:48;103283.16;;;7.73;100.00
35151;BME280;55720;51.972;4.624;2023-04-09T02:44:13;103293.00;;;7.74;100.00
35151;BME280;55720;51.972;4.624;2023-04-09T02:46:40;103300.97;;;7.76;100.00
35151;BME280;55720;51.972;4.624;2023-04-09T02:49:06;103308.94;;;7.77;100.00
35151;BME280;55720;51.972;4.624;2023-04-09T02:51:36;103301.81;;;7.76;100.00
35151;BME280;55720;51.972;4.624;2023-04-09T02:54:02;103300.72;;;7.77;100.00
35151;BME280;55720;51.972;4.624;2023-04-09T02:56:28;103309.25;;;7.81;100.00
35151;BME280;55720;51.972;4.624;2023-04-09T02:58:53;103297.72;;;7.79;100.00
35151;BME280;55720;51.972;4.624;2023-04-09T03:01:19;103279.16;;;7.81;100.00
35151;BME280;55720;51.972;4.624;2023-04-09T03:03:45;103264.16;;;7.83;100.00
35151;BME280;55720;51.972;4.624;2023-04-09T03:06:11;103225.56;;;7.85;100.00
35151;BME280;55720;51.972;4.624;2023-04-09T03:08:36;103164.13;;;7.92;100.00
35151;BME280;55720;51.972;4.624;2023-04-09T03:11:02;103101.50;;;7.96;100.00
35151;BME280;55720;51.972;4.624;2023-04-09T03:13:27;103005.28;;;8.04;100.00
35151;BME280;55720;51.972;4.624;2023-04-09T03:15:53;102916.38;;;8.07;100.00
35151;BME280;55720;51.972;4.624;2023-04-09T03:18:18;102830.19;;;8.04;100.00
35151;BME280;55720;51.972;4.624;2023-04-09T03:20:44;102738.03;;;8.05;100.00
35151;BME280;55720;51.972;4.624;2023-04-09T03:23:10;102660.63;;;8.09;100.00
35151;BME280;55720;51.972;4.624;2023-04-09T03:25:36;102567.84;;;8.08;100.00
35151;BME280;55720;51.972;4.624;2023-04-09T03:28:01;102500.03;;;8.10;100.00
35151;BME280;55720;51.972;4.624;2023-04-09T03:30:27;102440.94;;;8.09;100.00
35151;BME280;55720;51.972;4.624;2023-04-09T03:32:53;102376.09;;;8.09;100.00
35151;BME280;55720;51.972;4.624;2023-04-09T03:35:18;102314.25;;;8.13;100.00
35151;BME280;55720;51.972;4.624;2023-04-09T03:37:44;102246.69;;;8.14;100.00
35151;BME280;55720;51.972;4.624;2023-04-09T03:40:10;102176.66;;;8.13;100.00
35151;BME280;55720;51.972;4.624;2023-04-09T03:42:35;102125.19;;;8.15;100.00
35151;BME280;55720;51.972;4.624;2023-04-09T03:45:02;102086.91;;;8.15;100.00
35151;BME280;55720;51.972;4.624;2023-04-09T03:47:28;102098.66;;;8.15;100.00
35151;BME280;55720;51.972;4.624;2023-04-09T03:49:53;102054.31;;;8.18;100.00
35151;BME280;55720;51.972;4.624;2023-04-09T03:52:18;102026.97;;;8.18;100.00
35151;BME280;55720;51.972;4.624;2023-04-09T03:54:44;102003.69;;;8.21;100.00
35151;BME280;55720;51.972;4.624;2023-04-09T03:57:09;101977.13;;;8.21;100.00
35151;BME280;55720;51.972;4.624;2023-04-09T03:59:34;101951.13;;;8.24;100.00
35151;BME280;55720;51.972;4.624;2023-04-09T04:02:00;101922.41;;;8.21;100.00
35151;BME280;55720;51.972;4.624;2023-04-09T04:04:25;101907.41;;;8.19;100.00
35151;BME280;55720;51.972;4.624;2023-04-09T04:06:51;101889.59;;;8.21;100.00
35151;BME280;55720;51.972;4.624;2023-04-09T04:09:16;101867.69;;;8.21;100.00
35151;BME280;55720;51.972;4.624;2023-04-09T04:11:42;101850.78;;;8.19;100.00
35151;BME280;55720;51.972;4.624;2023-04-09T04:14:07;101843.97;;;8.17;100.00
35151;BME280;55720;51.972;4.624;2023-04-09T04:16:32;101830.28;;;8.17;100.00
35151;BME280;55720;51.972;4.624;2023-04-09T04:18:58;101819.03;;;8.18;100.00
35151;BME280;55720;51.972;4.624;2023-04-09T04:21:23;101809.72;;;8.19;100.00
35151;BME280;55720;51.972;4.624;2023-04-09T04:23:48;101793.81;;;8.21;100.00
35151;BME280;55720;51.972;4.624;2023-04-09T04:26:14;101789.19;;;8.22;100.00
35151;BME280;55720;51.972;4.624;2023-04-09T04:28:40;101792.13;;;8.25;100.00
35151;BME280;55720;51.972;4.624;2023-04-09T04:31:11;101773.28;;;8.24;100.00
35151;BME280;55720;51.972;4.624;2023-04-09T04:33:38;101775.50;;;8.22;100.00
35151;BME280;55720;51.972;4.624;2023-04-09T04:38:30;101755.25;;;8.23;100.00
35151;BME280;55720;51.972;4.624;2023-04-09T04:40:56;101749.78;;;8.23;100.00
35151;BME280;55720;51.972;4.624;2023-04-09T04:43:21;101738.84;;;8.23;100.00
35151;BME280;55720;51.972;4.624;2023-04-09T04:45:46;101742.06;;;8.25;100.00
35151;BME280;55720;51.972;4.624;2023-04-09T04:48:12;101747.84;;;8.23;100.00
35151;BME280;55720;51.972;4.624;2023-04-09T04:50:37;101744.03;;;8.24;100.00
35151;BME280;55720;51.972;4.624;2023-04-09T04:53:02;101746.16;;;8.27;100.00
35151;BME280;55720;51.972;4.624;2023-04-09T04:55:28;101739.59;;;8.28;100.00
35151;BME280;55720;51.972;4.624;2023-04-09T04:57:53;101741.75;;;8.31;100.00
35151;BME280;55720;51.972;4.624;2023-04-09T05:00:19;101744.78;;;8.30;100.00
35151;BME280;55720;51.972;4.624;2023-04-09T05:02:44;101742.00;;;8.35;100.00
35151;BME280;55720;51.972;4.624;2023-04-09T05:05:10;101736.50;;;8.35;100.00
35151;BME280;55720;51.972;4.624;2023-04-09T05:07:35;101734.28;;;8.37;100.00
35151;BME280;55720;51.972;4.624;2023-04-09T05:10:00;101733.25;;;8.33;100.00
35151;BME280;55720;51.972;4.624;2023-04-09T05:12:26;101723.66;;;8.35;100.00
35151;BME280;55720;51.972;4.624;2023-04-09T05:14:51;101717.34;;;8.35;100.00
35151;BME280;55720;51.972;4.624;2023-04-09T05:17:17;101719.50;;;8.38;100.00
35151;BME280;55720;51.972;4.624;2023-04-09T05:19:43;101708.56;;;8.38;100.00
35151;BME280;55720;51.972;4.624;2023-04-09T05:22:08;101708.25;;;8.39;100.00
35151;BME280;55720;51.972;4.624;2023-04-09T05:24:33;101699.16;;;8.44;100.00
35151;BME280;55720;51.972;4.624;2023-04-09T05:26:59;101702.69;;;8.45;100.00
35151;BME280;55720;51.972;4.624;2023-04-09T05:29:25;101698.88;;;8.46;100.00
35151;BME280;55720;51.972;4.624;2023-04-09T05:31:50;101688.19;;;8.44;100.00
35151;BME280;55720;51.972;4.624;2023-04-09T05:34:16;101699.16;;;8.44;100.00
35151;BME280;55720;51.972;4.624;2023-04-09T05:36:41;101693.06;;;8.47;100.00
35151;BME280;55720;51.972;4.624;2023-04-09T05:39:06;101687.59;;;8.47;100.00
35151;BME280;55720;51.972;4.624;2023-04-09T05:41:32;101698.75;;;8.51;100.00
35151;BME280;55720;51.972;4.624;2023-04-09T05:43:57;101692.63;;;8.59;100.00
35151;BME280;55720;51.972;4.624;2023-04-09T05:46:23;101693.72;;;8.58;100.00
35151;BME280;55720;51.972;4.624;2023-04-09T05:48:48;101688.56;;;8.56;100.00
35151;BME280;55720;51.972;4.624;2023-04-09T05:51:13;101691.19;;;8.61;100.00
35151;BME280;55720;51.972;4.624;2023-04-09T05:53:39;101692.34;;;8.60;100.00
35151;BME280;55720;51.972;4.624;2023-04-09T05:56:14;101690.53;;;8.69;100.00
35151;BME280;55720;51.972;4.624;2023-04-09T05:58:40;101690.03;;;8.67;100.00
35151;BME280;55720;51.972;4.624;2023-04-09T06:01:05;101697.31;;;8.72;100.00
35151;BME280;55720;51.972;4.624;2023-04-09T06:03:31;101697.53;;;8.75;100.00
35151;BME280;55720;51.972;4.624;2023-04-09T06:05:56;101695.94;;;8.74;100.00
35151;BME280;55720;51.972;4.624;2023-04-09T06:08:21;101698.34;;;8.76;100.00
35151;BME280;55720;51.972;4.624;2023-04-09T06:10:47;101696.97;;;8.78;100.00
35151;BME280;55720;51.972;4.624;2023-04-09T06:13:12;101689.84;;;8.77;100.00
35151;BME280;55720;51.972;4.624;2023-04-09T06:15:38;101684.31;;;8.82;100.00
35151;BME280;55720;51.972;4.624;2023-04-09T06:18:03;101683.09;;;8.88;100.00
35151;BME280;55720;51.972;4.624;2023-04-09T06:20:29;101682.28;;;8.88;100.00
35151;BME280;55720;51.972;4.624;2023-04-09T06:22:54;101685.72;;;8.94;100.00
35151;BME280;55720;51.972;4.624;2023-04-09T06:25:20;101684.84;;;8.98;100.00
35151;BME280;55720;51.972;4.624;2023-04-09T06:27:45;101697.00;;;8.92;100.00
35151;BME280;55720;51.972;4.624;2023-04-09T06:30:11;101695.69;;;8.89;100.00
35151;BME280;55720;51.972;4.624;2023-04-09T06:32:36;101698.03;;;8.96;100.00
35151;BME280;55720;51.972;4.624;2023-04-09T06:35:02;101699.53;;;8.88;100.00
35151;BME280;55720;51.972;4.624;2023-04-09T06:37:28;101696.41;;;8.95;100.00
35151;BME280;55720;51.972;4.624;2023-04-09T06:39:53;101695.69;;;8.89;100.00
35151;BME280;55720;51.972;4.624;2023-04-09T06:42:18;101713.22;;;8.88;100.00
35151;BME280;55720;51.972;4.624;2023-04-09T06:44:44;101705.03;;;9.02;100.00
35151;BME280;55720;51.972;4.624;2023-04-09T06:47:09;101706.13;;;9.01;100.00
35151;BME280;55720;51.972;4.624;2023-04-09T06:49:35;101706.13;;;9.01;100.00
35151;BME280;55720;51.972;4.624;2023-04-09T06:52:00;101711.41;;;8.98;100.00
35151;BME280;55720;51.972;4.624;2023-04-09T06:54:26;101709.09;;;9.05;100.00
35151;BME280;55720;51.972;4.624;2023-04-09T06:56:51;101707.69;;;9.07;100.00
35151;BME280;55720;51.972;4.624;2023-04-09T06:59:16;101699.56;;;9.16;100.00
35151;BME280;55720;51.972;4.624;2023-04-09T07:01:42;101708.53;;;9.21;100.00
35151;BME280;55720;51.972;4.624;2023-04-09T07:04:08;101697.97;;;9.28;100.00
35151;BME280;55720;51.972;4.624;2023-04-09T07:06:34;101700.13;;;9.31;100.00
35151;BME280;55720;51.972;4.624;2023-04-09T07:09:00;101697.16;;;9.28;100.00
35151;BME280;55720;51.972;4.624;2023-04-09T07:11:25;101707.03;;;9.29;100.00
35151;BME280;55720;51.972;4.624;2023-04-09T07:13:51;101707.63;;;9.26;100.00
35151;BME280;55720;51.972;4.624;2023-04-09T07:16:16;101706.41;;;9.32;100.00
35151;BME280;55720;51.972;4.624;2023-04-09T07:18:41;101706.22;;;9.28;100.00
35151;BME280;55720;51.972;4.624;2023-04-09T07:21:07;101705.88;;;9.30;100.00
35151;BME280;55720;51.972;4.624;2023-04-09T07:23:35;101709.44;;;9.30;100.00
35151;BME280;55720;51.972;4.624;2023-04-09T07:26:03;101711.38;;;9.30;100.00
35151;BME280;55720;51.972;4.624;2023-04-09T07:28:28;101704.97;;;9.34;100.00
35151;BME280;55720;51.972;4.624;2023-04-09T07:30:53;101716.75;;;9.35;100.00
35151;BME280;55720;51.972;4.624;2023-04-09T07:33:19;101718.28;;;9.27;100.00
35151;BME280;55720;51.972;4.624;2023-04-09T07:35:44;101730.44;;;9.21;100.00
35151;BME280;55720;51.972;4.624;2023-04-09T07:38:11;101726.50;;;9.27;100.00
35151;BME280;55720;51.972;4.624;2023-04-09T07:40:36;101726.06;;;9.20;100.00
35151;BME280;55720;51.972;4.624;2023-04-09T07:43:02;101726.91;;;9.21;100.00
35151;BME280;55720;51.972;4.624;2023-04-09T07:45:28;101723.53;;;9.24;100.00
35151;BME280;55720;51.972;4.624;2023-04-09T07:47:53;101732.19;;;9.31;100.00
35151;BME280;55720;51.972;4.624;2023-04-09T07:50:18;101735.31;;;9.24;100.00
35151;BME280;55720;51.972;4.624;2023-04-09T07:52:44;101737.44;;;9.14;100.00
35151;BME280;55720;51.972;4.624;2023-04-09T07:55:10;101746.22;;;9.29;100.00
35151;BME280;55720;51.972;4.624;2023-04-09T07:57:35;101753.41;;;9.39;100.00
35151;BME280;55720;51.972;4.624;2023-04-09T08:00:01;101762.81;;;9.19;100.00
35151;BME280;55720;51.972;4.624;2023-04-09T08:02:27;101757.16;;;9.29;100.00
35151;BME280;55720;51.972;4.624;2023-04-09T08:04:53;101759.81;;;9.34;100.00
35151;BME280;55720;51.972;4.624;2023-04-09T08:07:18;101763.91;;;9.51;100.00
35151;BME280;55720;51.972;4.624;2023-04-09T08:09:44;101753.75;;;9.65;100.00
35151;BME280;55720;51.972;4.624;2023-04-09T08:12:10;101766.13;;;9.62;100.00
35151;BME280;55720;51.972;4.624;2023-04-09T08:14:35;101772.41;;;9.49;100.00
35151;BME280;55720;51.972;4.624;2023-04-09T08:17:01;101782.47;;;9.40;100.00
35151;BME280;55720;51.972;4.624;2023-04-09T08:19:26;101788.22;;;9.38;100.00
35151;BME280;55720;51.972;4.624;2023-04-09T08:21:51;101798.22;;;9.16;100.00
35151;BME280;55720;51.972;4.624;2023-04-09T08:24:17;101801.84;;;9.44;100.00
35151;BME280;55720;51.972;4.624;2023-04-09T08:26:43;101803.66;;;9.34;100.00
35151;BME280;55720;51.972;4.624;2023-04-09T08:29:10;101800.72;;;9.45;100.00
35151;BME280;55720;51.972;4.624;2023-04-09T08:31:36;101796.78;;;9.51;100.00
35151;BME280;55720;51.972;4.624;2023-04-09T08:34:02;101803.72;;;9.62;100.00
35151;BME280;55720;51.972;4.624;2023-04-09T08:36:27;101802.88;;;9.48;100.00
35151;BME280;55720;51.972;4.624;2023-04-09T08:38:53;101817.53;;;9.24;100.00
35151;BME280;55720;51.972;4.624;2023-04-09T08:41:23;101818.38;;;9.38;100.00
35151;BME280;55720;51.972;4.624;2023-04-09T08:43:50;101803.72;;;9.62;100.00
35151;BME280;55720;51.972;4.624;2023-04-09T08:46:20;101810.81;;;9.63;100.00
35151;BME280;55720;51.972;4.624;2023-04-09T08:48:47;101809.09;;;9.67;100.00
35151;BME280;55720;51.972;4.624;2023-04-09T08:51:18;101811.06;;;9.80;100.00
35151;BME280;55720;51.972;4.624;2023-04-09T08:54:02;101813.69;;;9.71;100.00
35151;BME280;55720;51.972;4.624;2023-04-09T08:56:27;101812.88;;;9.71;100.00
35151;BME280;55720;51.972;4.624;2023-04-09T08:58:54;101809.63;;;9.82;100.00
35151;BME280;55720;51.972;4.624;2023-04-09T09:01:24;101818.06;;;9.72;100.00
35151;BME280;55720;51.972;4.624;2023-04-09T09:04:01;101820.81;;;9.86;100.00
35151;BME280;55720;51.972;4.624;2023-04-09T09:06:39;101829.44;;;9.93;100.00
35151;BME280;55720;51.972;4.624;2023-04-09T09:09:06;101840.91;;;9.68;100.00
35151;BME280;55720;51.972;4.624;2023-04-09T09:14:02;101842.59;;;9.64;100.00
35151;BME280;55720;51.972;4.624;2023-04-09T09:16:28;101844.88;;;9.75;100.00
35151;BME280;55720;51.972;4.624;2023-04-09T09:18:54;101846.59;;;9.99;100.00
35151;BME280;55720;51.972;4.624;2023-04-09T09:21:22;101852.72;;;10.09;100.00
35151;BME280;55720;51.972;4.624;2023-04-09T09:23:48;101860.47;;;10.21;100.00
35151;BME280;55720;51.972;4.624;2023-04-09T09:26:20;101867.41;;;10.18;100.00
35151;BME280;55720;51.972;4.624;2023-04-09T09:28:48;101862.91;;;10.50;100.00
35151;BME280;55720;51.972;4.624;2023-04-09T09:31:14;101890.88;;;10.52;100.00
35151;BME280;55720;51.972;4.624;2023-04-09T09:33:41;101914.25;;;10.49;100.00
35151;BME280;55720;51.972;4.624;2023-04-09T09:36:07;101919.84;;;10.85;100.00
35151;BME280;55720;51.972;4.624;2023-04-09T09:38:55;101940.06;;;10.89;100.00
35151;BME280;55720;51.972;4.624;2023-04-09T09:41:22;101962.56;;;10.91;100.00
35151;BME280;55720;51.972;4.624;2023-04-09T09:43:48;101942.44;;;11.54;100.00
35151;BME280;55720;51.972;4.624;2023-04-09T09:46:14;101966.09;;;11.41;100.00
35151;BME280;55720;51.972;4.624;2023-04-09T09:48:40;101975.78;;;11.74;100.00
35151;BME280;55720;51.972;4.624;2023-04-09T09:51:08;101995.09;;;12.05;100.00
35151;BME280;55720;51.972;4.624;2023-04-09T09:53:35;102019.69;;;11.79;100.00
35151;BME280;55720;51.972;4.624;2023-04-09T09:56:03;102004.38;;;12.40;100.00
35151;BME280;55720;51.972;4.624;2023-04-09T09:58:38;102038.47;;;12.00;100.00
35151;BME280;55720;51.972;4.624;2023-04-09T10:01:09;102033.25;;;12.82;100.00
35151;BME280;55720;51.972;4.624;2023-04-09T10:03:37;102046.38;;;13.24;100.00
35151;BME280;55720;51.972;4.624;2023-04-09T10:06:04;102045.63;;;14.01;100.00
35151;BME280;55720;51.972;4.624;2023-04-09T10:08:32;102062.94;;;14.62;100.00
35151;BME280;55720;51.972;4.624;2023-04-09T10:11:00;102081.13;;;14.63;100.00
35151;BME280;55720;51.972;4.624;2023-04-09T10:13:32;102111.72;;;14.58;100.00
35151;BME280;55720;51.972;4.624;2023-04-09T10:15:59;102140.84;;;14.21;100.00
35151;BME280;55720;51.972;4.624;2023-04-09T10:28:26;102112.09;;;14.13;100.00
35151;BME280;55720;51.972;4.624;2023-04-09T10:30:52;102146.81;;;13.80;100.00
35151;BME280;55720;51.972;4.624;2023-04-09T10:33:21;102132.31;;;13.49;100.00
35151;BME280;55720;51.972;4.624;2023-04-09T10:38:39;102131.56;;;14.25;100.00
35151;BME280;55720;51.972;4.624;2023-04-09T10:43:47;102202.69;;;15.06;100.00
35151;BME280;55720;51.972;4.624;2023-04-09T10:51:40;102323.25;;;14.98;100.00
35151;BME280;55720;51.972;4.624;2023-04-09T10:54:35;102333.84;;;15.13;100.00
35151;BME280;55720;51.972;4.624;2023-04-09T10:59:50;102356.25;;;14.69;100.00
35151;BME280;55720;51.972;4.624;2023-04-09T11:05:29;102371.59;;;14.92;100.00
35151;BME280;55720;51.972;4.624;2023-04-09T11:08:05;102370.09;;;15.46;100.00
35151;BME280;55720;51.972;4.624;2023-04-09T11:10:32;102372.50;;;15.73;100.00
35151;BME280;55720;51.972;4.624;2023-04-09T11:12:58;102386.97;;;15.88;100.00
35151;BME280;55720;51.972;4.624;2023-04-09T11:15:23;102387.13;;;15.91;100.00
35151;BME280;55720;51.972;4.624;2023-04-09T11:17:49;102402.69;;;15.58;100.00
35151;BME280;55720;51.972;4.624;2023-04-09T11:20:16;102400.38;;;15.43;100.00
35151;BME280;55720;51.972;4.624;2023-04-09T11:22:43;102398.78;;;15.33;100.00
35151;BME280;55720;51.972;4.624;2023-04-09T11:28:04;102396.00;;;14.99;100.00
35151;BME280;55720;51.972;4.624;2023-04-09T11:30:30;102403.97;;;15.60;100.00
35151;BME280;55720;51.972;4.624;2023-04-09T11:32:56;102413.56;;;15.80;100.00
35151;BME280;55720;51.972;4.624;2023-04-09T11:35:21;102429.19;;;15.67;100.00
35151;BME280;55720;51.972;4.624;2023-04-09T11:37:48;102418.53;;;16.42;100.00
35151;BME280;55720;51.972;4.624;2023-04-09T11:40:15;102428.66;;;16.38;100.00
35151;BME280;55720;51.972;4.624;2023-04-09T11:42:42;102436.28;;;16.03;100.00
35151;BME280;55720;51.972;4.624;2023-04-09T11:45:08;102445.22;;;16.63;100.00
35151;BME280;55720;51.972;4.624;2023-04-09T11:47:34;102463.53;;;17.06;100.00
35151;BME280;55720;51.972;4.624;2023-04-09T11:50:01;102477.91;;;16.79;100.00
35151;BME280;55720;51.972;4.624;2023-04-09T11:52:27;102478.78;;;17.20;100.00
35151;BME280;55720;51.972;4.624;2023-04-09T11:54:58;102499.78;;;17.30;100.00
35151;BME280;55720;51.972;4.624;2023-04-09T11:57:35;102504.91;;;16.61;100.00
35151;BME280;55720;51.972;4.624;2023-04-09T12:00:05;102514.91;;;16.45;100.00
35151;BME280;55720;51.972;4.624;2023-04-09T12:02:31;102522.63;;;16.22;100.00
35151;BME280;55720;51.972;4.624;2023-04-09T12:05:02;102520.81;;;16.81;100.00
35151;BME280;55720;51.972;4.624;2023-04-09T12:07:34;102513.06;;;16.66;100.00
35151;BME280;55720;51.972;4.624;2023-04-09T12:10:07;102509.03;;;17.96;100.00
35151;BME280;55720;51.972;4.624;2023-04-09T12:12:46;102500.19;;;17.41;100.00
35151;BME280;55720;51.972;4.624;2023-04-09T12:17:54;102528.88;;;16.65;100.00
35151;BME280;55720;51.972;4.624;2023-04-09T12:20:30;102522.72;;;16.60;100.00
35151;BME280;55720;51.972;4.624;2023-04-09T12:22:56;102526.44;;;15.57;100.00
35151;BME280;55720;51.972;4.624;2023-04-09T12:25:22;102517.91;;;16.31;100.00
35151;BME280;55720;51.972;4.624;2023-04-09T12:27:48;102519.59;;;16.61;100.00
35151;BME280;55720;51.972;4.624;2023-04-09T12:30:13;102501.41;;;16.81;100.00
35151;BME280;55720;51.972;4.624;2023-04-09T12:32:38;102512.31;;;16.40;100.00
35151;BME280;55720;51.972;4.624;2023-04-09T12:35:04;102513.66;;;16.71;100.00
35151;BME280;55720;51.972;4.624;2023-04-09T12:39:57;102513.63;;;16.80;100.00
35151;BME280;55720;51.972;4.624;2023-04-09T12:42:23;102520.63;;;16.86;100.00
35151;BME280;55720;51.972;4.624;2023-04-09T12:47:13;102508.34;;;17.66;100.00
35151;BME280;55720;51.972;4.624;2023-04-09T12:49:38;102498.50;;;17.48;100.00
35151;BME280;55720;51.972;4.624;2023-04-09T12:52:04;102491.78;;;17.29;100.00
35151;BME280;55720;51.972;4.624;2023-04-09T12:54:29;102514.63;;;16.29;100.00
35151;BME280;55720;51.972;4.624;2023-04-09T12:56:55;102530.94;;;16.13;100.00
35151;BME280;55720;51.972;4.624;2023-04-09T12:59:20;102535.31;;;15.20;100.00
35151;BME280;55720;51.972;4.624;2023-04-09T13:04:11;102525.84;;;16.33;100.00
35151;BME280;55720;51.972;4.624;2023-04-09T13:06:36;102524.44;;;16.18;100.00
35151;BME280;55720;51.972;4.624;2023-04-09T13:09:02;102510.44;;;16.69;100.00
35151;BME280;55720;51.972;4.624;2023-04-09T13:11:27;102494.75;;;17.03;100.00
35151;BME280;55720;51.972;4.624;2023-04-09T13:13:52;102482.28;;;17.30;100.00
35151;BME280;55720;51.972;4.624;2023-04-09T13:16:18;102478.69;;;17.08;100.00
35151;BME280;55720;51.972;4.624;2023-04-09T13:18:43;102495.31;;;16.58;100.00
35151;BME280;55720;51.972;4.624;2023-04-09T13:21:08;102493.03;;;15.97;100.00
35151;BME280;55720;51.972;4.624;2023-04-09T13:23:34;102511.97;;;15.52;100.00
35151;BME280;55720;51.972;4.624;2023-04-09T13:25:59;102515.66;;;15.30;100.00
35151;BME280;55720;51.972;4.624;2023-04-09T13:28:25;102517.94;;;15.45;100.00
35151;BME280;55720;51.972;4.624;2023-04-09T13:30:51;102508.84;;;15.79;100.00
35151;BME280;55720;51.972;4.624;2023-04-09T13:33:17;102508.34;;;15.94;100.00
35151;BME280;55720;51.972;4.624;2023-04-09T13:35:42;102491.91;;;15.72;100.00